createdAt,value
2019-05-14T00:02:18.597Z,11.00
2019-05-14T00:04:51.183Z,11.00
2019-05-14T00:07:22.394Z,11.00
2019-05-14T00:09:51.902Z,10.90
2019-05-14T00:12:26.829Z,10.90
2019-05-14T00:14:58.611Z,10.90
2019-05-14T00:17:33.440Z,10.90
2019-05-14T00:20:10.228Z,10.90
2019-05-14T00:22:45.355Z,10.80
2019-05-14T00:25:15.372Z,10.80
2019-05-14T00:27:51.748Z,10.80
2019-05-14T00:30:22.008Z,10.80
2019-05-14T00:32:54.124Z,10.70
2019-05-14T00:35:25.882Z,10.70
2019-05-14T00:38:01.364Z,10.70
2019-05-14T00:40:36.257Z,10.70
2019-05-14T00:43:11.392Z,10.60
2019-05-14T00:45:42.639Z,10.60
2019-05-14T00:48:24.436Z,10.60
2019-05-14T00:50:59.248Z,10.60
2019-05-14T00:53:32.021Z,10.50
2019-05-14T00:56:02.210Z,10.50
2019-05-14T00:58:33.298Z,10.40
2019-05-14T01:01:03.078Z,10.40
2019-05-14T01:03:42.372Z,10.40
2019-05-14T01:06:11.469Z,10.40
2019-05-14T01:08:46.157Z,10.30
2019-05-14T01:11:22.172Z,10.30
2019-05-14T01:13:56.831Z,10.30
2019-05-14T01:16:28.302Z,10.30
2019-05-14T01:18:58.059Z,10.20
2019-05-14T01:21:26.862Z,10.30
2019-05-14T01:23:55.677Z,10.20
2019-05-14T01:26:31.062Z,10.20
2019-05-14T01:29:01.423Z,10.20
2019-05-14T01:31:33.454Z,10.20
2019-05-14T01:34:02.390Z,10.20
2019-05-14T01:36:34.218Z,10.20
2019-05-14T01:39:03.391Z,10.10
2019-05-14T01:41:38.159Z,10.10
2019-05-14T01:44:07.094Z,10.10
2019-05-14T01:46:42.080Z,10.10
2019-05-14T01:49:17.046Z,10.10
2019-05-14T01:51:46.166Z,10.10
2019-05-14T01:54:16.172Z,10.10
2019-05-14T01:56:51.490Z,10.00
2019-05-14T01:59:23.784Z,10.00
2019-05-14T02:01:55.849Z,10.00
2019-05-14T02:04:27.811Z,10.00
2019-05-14T02:07:02.494Z,10.00
2019-05-14T02:09:34.193Z,9.90
2019-05-14T02:12:06.055Z,9.90
2019-05-14T02:14:34.944Z,9.80
2019-05-14T02:17:09.671Z,9.80
2019-05-14T02:19:42.496Z,9.80
2019-05-14T02:22:15.031Z,9.80
2019-05-14T02:24:46.684Z,9.80
2019-05-14T02:27:18.136Z,9.70
2019-05-14T02:29:52.864Z,9.70
2019-05-14T02:32:24.706Z,9.70
2019-05-14T02:34:58.833Z,9.70
2019-05-14T02:37:29.887Z,9.60
2019-05-14T02:39:59.637Z,9.60
2019-05-14T02:42:28.978Z,9.60
2019-05-14T02:44:59.272Z,9.60
2019-05-14T02:47:30.869Z,9.60
2019-05-14T02:49:59.655Z,9.50
2019-05-14T02:52:31.721Z,9.50
2019-05-14T02:55:04.092Z,9.50
2019-05-14T02:57:33.905Z,9.50
2019-05-14T03:00:10.167Z,9.50
2019-05-14T03:02:40.348Z,9.50
2019-05-14T03:05:13.242Z,9.40
2019-05-14T03:07:45.139Z,9.40
2019-05-14T03:10:19.864Z,9.40
2019-05-14T03:12:54.383Z,9.40
2019-05-14T03:15:24.397Z,9.40
2019-05-14T03:17:53.394Z,9.40
2019-05-14T03:20:22.386Z,9.30
2019-05-14T03:23:03.066Z,9.30
2019-05-14T03:25:29.726Z,9.30
2019-05-14T03:27:59.916Z,9.20
2019-05-14T03:30:33.813Z,9.20
2019-05-14T03:33:04.763Z,9.20
2019-05-14T03:35:42.143Z,9.20
2019-05-14T03:38:04.282Z,9.20
2019-05-14T03:40:34.296Z,9.10
2019-05-14T03:43:03.394Z,9.10
2019-05-14T03:45:35.456Z,9.10
2019-05-14T03:48:09.981Z,9.00
2019-05-14T03:50:39.997Z,9.00
2019-05-14T03:53:14.627Z,9.00
2019-05-14T03:55:49.980Z,8.90
2019-05-14T03:58:23.241Z,8.90
2019-05-14T04:00:55.021Z,8.90
2019-05-14T04:03:32.561Z,8.90
2019-05-14T04:06:05.888Z,8.90
2019-05-14T04:08:39.166Z,8.90
2019-05-14T04:11:10.438Z,8.80
2019-05-14T04:13:52.665Z,8.80
2019-05-14T04:16:23.454Z,8.80
2019-05-14T04:18:54.525Z,8.70
2019-05-14T04:21:24.634Z,8.70
2019-05-14T04:24:00.898Z,8.70
2019-05-14T04:26:50.892Z,8.70
2019-05-14T04:29:10.186Z,8.70
2019-05-14T04:31:41.378Z,8.60
2019-05-14T04:34:10.998Z,8.60
2019-05-14T04:36:43.169Z,8.60
2019-05-14T04:39:19.591Z,8.70
2019-05-14T04:41:49.778Z,8.70
2019-05-14T04:44:19.384Z,8.70
2019-05-14T04:46:49.340Z,8.70
2019-05-14T04:49:19.921Z,8.70
2019-05-14T04:51:51.611Z,8.70
2019-05-14T04:54:23.219Z,8.70
2019-05-14T04:56:54.677Z,8.70
2019-05-14T04:59:30.121Z,8.70
2019-05-14T05:02:00.286Z,8.70
2019-05-14T05:04:35.273Z,8.70
2019-05-14T05:07:09.955Z,8.70
2019-05-14T05:09:40.020Z,8.80
2019-05-14T05:12:14.943Z,8.80
2019-05-14T05:14:49.080Z,8.80
2019-05-14T05:17:19.649Z,8.80
2019-05-14T05:19:51.696Z,8.80
2019-05-14T05:22:23.920Z,8.80
2019-05-14T05:24:55.473Z,8.80
2019-05-14T05:27:25.254Z,8.90
2019-05-14T05:29:58.997Z,8.90
2019-05-14T05:32:29.107Z,8.90
2019-05-14T05:34:59.023Z,8.90
2019-05-14T05:37:33.790Z,8.90
2019-05-14T05:40:05.953Z,8.90
2019-05-14T05:42:34.751Z,8.90
2019-05-14T05:45:04.566Z,9.00
2019-05-14T05:47:33.357Z,9.00
2019-05-14T05:50:02.141Z,9.00
2019-05-14T05:52:30.971Z,9.10
2019-05-14T05:54:59.769Z,9.20
2019-05-14T05:57:29.533Z,9.20
2019-05-14T05:59:58.959Z,9.30
2019-05-14T06:02:29.145Z,9.30
2019-05-14T06:04:58.613Z,9.40
2019-05-14T06:07:30.879Z,9.50
2019-05-14T06:10:02.440Z,9.50
2019-05-14T06:12:38.865Z,9.60
2019-05-14T06:15:14.406Z,9.60
2019-05-14T06:17:49.432Z,9.70
2019-05-14T06:20:20.448Z,9.80
2019-05-14T06:22:50.233Z,9.90
2019-05-14T06:25:21.895Z,10.00
2019-05-14T06:27:52.911Z,10.10
2019-05-14T06:30:30.525Z,10.10
2019-05-14T06:32:59.386Z,10.20
2019-05-14T06:35:31.068Z,10.40
2019-05-14T06:38:03.336Z,10.50
2019-05-14T06:40:34.894Z,10.60
2019-05-14T06:43:09.036Z,10.70
2019-05-14T06:45:43.116Z,10.80
2019-05-14T06:48:27.120Z,10.90
2019-05-14T06:50:45.096Z,10.90
2019-05-14T06:53:19.823Z,11.00
2019-05-14T06:55:48.610Z,11.20
2019-05-14T06:58:20.481Z,11.30
2019-05-14T07:00:49.673Z,11.40
2019-05-14T07:03:18.561Z,11.50
2019-05-14T07:05:49.312Z,11.60
2019-05-14T07:08:18.974Z,11.70
2019-05-14T07:10:48.554Z,11.80
2019-05-14T07:13:18.922Z,11.90
2019-05-14T07:15:48.880Z,12.00
2019-05-14T07:18:18.998Z,12.10
2019-05-14T07:20:48.524Z,12.20
2019-05-14T07:23:19.382Z,12.30
2019-05-14T07:25:51.271Z,12.50
2019-05-14T07:28:21.084Z,12.60
2019-05-14T07:30:49.917Z,12.70
2019-05-14T07:33:20.812Z,12.90
2019-05-14T07:35:49.702Z,13.10
2019-05-14T07:38:21.766Z,13.20
2019-05-14T07:40:53.318Z,13.30
2019-05-14T07:43:23.129Z,13.40
2019-05-14T07:45:58.360Z,13.50
2019-05-14T07:48:30.375Z,13.50
2019-05-14T07:50:59.956Z,13.70
2019-05-14T07:53:38.513Z,13.80
2019-05-14T07:56:02.532Z,13.80
2019-05-14T07:58:38.690Z,13.90
2019-05-14T08:01:09.377Z,14.00
2019-05-14T08:03:38.498Z,14.10
2019-05-14T08:06:08.342Z,14.20
2019-05-14T08:08:38.496Z,14.30
2019-05-14T08:11:08.633Z,14.30
2019-05-14T08:13:39.230Z,14.40
2019-05-14T08:16:09.168Z,14.50
2019-05-14T08:18:39.642Z,14.70
2019-05-14T08:21:10.571Z,14.80
2019-05-14T08:23:45.178Z,14.90
2019-05-14T08:26:13.964Z,15.00
2019-05-14T08:28:42.795Z,15.20
2019-05-14T08:31:14.238Z,15.40
2019-05-14T08:33:49.293Z,15.50
2019-05-14T08:36:18.786Z,15.70
2019-05-14T08:38:50.003Z,15.80
2019-05-14T08:41:19.730Z,16.00
2019-05-14T08:43:51.634Z,16.20
2019-05-14T08:46:20.519Z,16.50
2019-05-14T08:48:49.931Z,16.60
2019-05-14T08:51:24.847Z,16.70
2019-05-14T08:53:53.701Z,16.90
2019-05-14T08:56:24.490Z,17.00
2019-05-14T08:58:53.300Z,17.10
2019-05-14T09:01:22.120Z,17.30
2019-05-14T09:03:50.913Z,17.30
2019-05-14T09:06:22.371Z,17.50
2019-05-14T09:08:52.191Z,17.70
2019-05-14T09:11:25.731Z,17.90
2019-05-14T09:13:56.078Z,18.10
2019-05-14T09:16:42.823Z,18.30
2019-05-14T09:19:01.181Z,18.40
2019-05-14T09:21:30.981Z,18.50
2019-05-14T09:23:59.795Z,18.60
2019-05-14T09:26:28.711Z,18.70
2019-05-14T09:29:18.236Z,18.70
2019-05-14T09:31:39.160Z,18.80
2019-05-14T09:34:13.145Z,18.90
2019-05-14T09:36:43.084Z,19.00
2019-05-14T09:39:12.897Z,19.00
2019-05-14T09:41:41.699Z,19.00
2019-05-14T09:44:12.504Z,19.00
2019-05-14T09:46:41.316Z,19.00
2019-05-14T09:49:12.758Z,19.20
2019-05-14T09:51:41.590Z,19.30
2019-05-14T09:54:16.446Z,19.50
2019-05-14T09:56:48.400Z,19.70
2019-05-14T09:59:22.379Z,19.80
2019-05-14T10:01:51.236Z,19.90
2019-05-14T10:04:20.042Z,20.00
2019-05-14T10:06:49.651Z,20.10
2019-05-14T10:09:18.527Z,20.30
2019-05-14T10:11:48.634Z,20.50
2019-05-14T10:14:17.590Z,20.50
2019-05-14T10:16:48.892Z,20.60
2019-05-14T10:19:19.258Z,20.70
2019-05-14T10:21:49.353Z,20.80
2019-05-14T10:24:18.703Z,20.90
2019-05-14T10:26:49.031Z,20.90
2019-05-14T10:29:19.118Z,20.90
2019-05-14T10:31:48.638Z,21.00
2019-05-14T10:34:19.255Z,20.80
2019-05-14T10:36:48.385Z,20.80
2019-05-14T10:39:19.174Z,20.80
2019-05-14T10:41:53.473Z,21.00
2019-05-14T10:44:22.312Z,21.10
2019-05-14T10:46:54.214Z,21.20
2019-05-14T10:49:23.774Z,21.40
2019-05-14T10:51:52.852Z,21.60
2019-05-14T10:54:29.256Z,21.60
2019-05-14T10:56:59.341Z,21.70
2019-05-14T10:59:31.368Z,21.70
2019-05-14T11:02:00.160Z,21.90
2019-05-14T11:04:29.082Z,21.90
2019-05-14T11:06:57.871Z,22.10
2019-05-14T11:09:29.866Z,22.10
2019-05-14T11:11:59.030Z,21.90
2019-05-14T11:14:31.704Z,21.70
2019-05-14T11:16:59.212Z,21.30
2019-05-14T11:19:28.276Z,21.00
2019-05-14T11:21:57.914Z,20.70
2019-05-14T11:24:32.643Z,20.60
2019-05-14T11:27:01.458Z,20.40
2019-05-14T11:29:33.006Z,20.10
2019-05-14T11:32:03.072Z,20.00
2019-05-14T11:34:35.243Z,19.90
2019-05-14T11:37:04.235Z,19.80
2019-05-14T11:39:33.223Z,19.70
2019-05-14T11:42:05.088Z,19.70
2019-05-14T11:44:38.220Z,19.60
2019-05-14T11:47:08.976Z,19.60
2019-05-14T11:49:37.747Z,19.50
2019-05-14T11:52:08.658Z,19.30
2019-05-14T11:54:49.479Z,19.10
2019-05-14T11:57:19.300Z,18.90
2019-05-14T12:00:08.700Z,18.80
2019-05-14T12:02:40.855Z,18.80
2019-05-14T12:05:10.056Z,18.70
2019-05-14T12:07:39.067Z,18.50
2019-05-14T12:10:11.672Z,18.40
2019-05-14T12:12:43.675Z,18.30
2019-05-14T12:15:18.536Z,18.30
2019-05-14T12:17:50.979Z,18.30
2019-05-14T12:20:29.398Z,18.30
2019-05-14T12:22:59.309Z,18.40
2019-05-14T12:25:29.390Z,18.30
2019-05-14T12:27:59.088Z,18.20
2019-05-14T12:30:28.836Z,18.20
2019-05-14T12:32:58.969Z,18.10
2019-05-14T12:35:29.247Z,18.10
2019-05-14T12:38:01.196Z,18.00
2019-05-14T12:40:30.008Z,17.90
2019-05-14T12:42:59.440Z,17.90
2019-05-14T12:45:29.887Z,17.80
2019-05-14T12:47:59.069Z,17.90
2019-05-14T12:50:28.856Z,17.80
2019-05-14T12:52:59.706Z,17.80
2019-05-14T12:55:31.533Z,17.70
2019-05-14T12:58:00.335Z,17.70
2019-05-14T13:00:29.228Z,17.60
2019-05-14T13:02:58.635Z,17.50
2019-05-14T13:05:33.452Z,17.40
2019-05-14T13:08:02.259Z,17.40
2019-05-14T13:10:32.119Z,17.40
2019-05-14T13:13:03.023Z,17.40
2019-05-14T13:15:31.931Z,17.30
2019-05-14T13:18:08.685Z,17.30
2019-05-14T13:20:38.875Z,17.30
2019-05-14T13:23:10.786Z,17.30
2019-05-14T13:25:59.489Z,17.20
2019-05-14T13:28:34.380Z,17.20
2019-05-14T13:31:09.159Z,17.20
2019-05-14T13:33:39.430Z,17.20
2019-05-14T13:36:14.666Z,17.30
2019-05-14T13:38:49.597Z,17.20
2019-05-14T13:41:24.424Z,17.20
2019-05-14T13:43:58.485Z,17.20
2019-05-14T13:46:28.738Z,17.30
2019-05-14T13:48:59.186Z,17.20
2019-05-14T13:51:33.015Z,17.20
2019-05-14T13:54:04.503Z,17.20
2019-05-14T13:56:33.287Z,17.10
2019-05-14T13:59:02.079Z,17.10
2019-05-14T14:01:30.917Z,17.00
2019-05-14T14:04:10.825Z,16.90
2019-05-14T14:06:35.439Z,16.90
2019-05-14T14:09:12.393Z,16.90
2019-05-14T14:11:41.459Z,16.80
2019-05-14T14:14:10.258Z,16.80
2019-05-14T14:16:39.701Z,16.80
2019-05-14T14:19:08.839Z,16.80
2019-05-14T14:21:43.640Z,16.70
2019-05-14T14:24:12.436Z,16.70
2019-05-14T14:26:41.262Z,16.70
2019-05-14T14:29:12.620Z,16.70
2019-05-14T14:31:41.807Z,16.70
2019-05-14T14:34:10.853Z,16.60
2019-05-14T14:36:42.675Z,16.60
2019-05-14T14:39:11.489Z,16.60
2019-05-14T14:41:48.680Z,16.60
2019-05-14T14:44:18.910Z,16.60
2019-05-14T14:47:08.058Z,16.60
2019-05-14T14:49:42.239Z,16.50
2019-05-14T14:52:11.888Z,16.50
2019-05-14T14:54:42.021Z,16.40
2019-05-14T14:57:20.010Z,16.30
2019-05-14T14:59:48.665Z,16.30
2019-05-14T15:02:19.705Z,16.20
2019-05-14T15:04:52.024Z,16.20
2019-05-14T15:07:29.824Z,16.10
2019-05-14T15:10:00.149Z,16.00
2019-05-14T15:12:35.809Z,16.00
2019-05-14T15:15:03.361Z,15.90
2019-05-14T15:17:32.350Z,15.90
2019-05-14T15:20:05.292Z,16.00
2019-05-14T15:22:34.082Z,15.90
2019-05-14T15:25:02.879Z,15.90
2019-05-14T15:27:38.584Z,15.90
2019-05-14T15:30:08.380Z,15.90
2019-05-14T15:32:42.951Z,15.80
2019-05-14T15:35:11.723Z,15.80
2019-05-14T15:37:42.841Z,15.90
2019-05-14T15:40:12.219Z,15.90
2019-05-14T15:42:41.995Z,16.00
2019-05-14T15:45:11.271Z,16.00
2019-05-14T15:47:40.116Z,15.90
2019-05-14T15:50:11.940Z,15.90
2019-05-14T15:52:40.713Z,15.90
2019-05-14T15:55:10.555Z,15.80
2019-05-14T15:57:40.086Z,15.80
2019-05-14T16:00:11.195Z,15.80
2019-05-14T16:02:40.169Z,15.70
2019-05-14T16:05:10.591Z,15.70
2019-05-14T16:07:39.662Z,15.80
2019-05-14T16:10:11.295Z,15.70
2019-05-14T16:12:41.134Z,15.70
2019-05-14T16:15:15.808Z,15.70
2019-05-14T16:17:49.535Z,15.60
2019-05-14T16:20:18.874Z,15.60
2019-05-14T16:22:48.020Z,15.60
2019-05-14T16:25:18.942Z,15.50
2019-05-14T16:27:53.321Z,15.50
2019-05-14T16:30:24.082Z,15.50
2019-05-14T16:32:52.871Z,15.40
2019-05-14T16:35:24.369Z,15.40
2019-05-14T16:37:56.288Z,15.40
2019-05-14T16:40:25.079Z,15.30
2019-05-14T16:42:53.992Z,15.20
2019-05-14T16:45:29.009Z,15.10
2019-05-14T16:47:59.332Z,15.00
2019-05-14T16:50:34.283Z,15.00
2019-05-14T16:53:03.080Z,15.00
2019-05-14T16:55:34.545Z,14.90
2019-05-14T16:58:04.302Z,14.80
2019-05-14T17:00:34.850Z,14.80
2019-05-14T17:03:03.567Z,14.80
2019-05-14T17:05:33.339Z,14.80
2019-05-14T17:08:02.127Z,14.70
2019-05-14T17:10:31.033Z,14.60
2019-05-14T17:13:01.789Z,14.60
2019-05-14T17:15:30.232Z,14.60
2019-05-14T17:17:59.801Z,14.60
2019-05-14T17:20:30.878Z,14.50
2019-05-14T17:22:59.669Z,14.50
2019-05-14T17:25:30.529Z,14.50
2019-05-14T17:28:05.416Z,14.40
2019-05-14T17:30:34.248Z,14.40
2019-05-14T17:33:09.641Z,14.40
2019-05-14T17:35:41.273Z,14.30
2019-05-14T17:38:12.666Z,14.20
2019-05-14T17:40:41.454Z,14.20
2019-05-14T17:43:10.298Z,14.20
2019-05-14T17:45:39.314Z,14.10
2019-05-14T17:48:10.789Z,14.10
2019-05-14T17:50:39.623Z,14.10
2019-05-14T17:53:09.707Z,14.00
2019-05-14T17:55:46.667Z,14.00
2019-05-14T17:58:13.115Z,14.00
2019-05-14T18:00:39.745Z,14.00
2019-05-14T18:03:08.765Z,14.00
2019-05-14T18:05:37.767Z,14.00
2019-05-14T18:08:09.166Z,13.90
2019-05-14T18:10:39.106Z,13.90
2019-05-14T18:13:09.153Z,13.80
2019-05-14T18:15:39.484Z,13.80
2019-05-14T18:18:08.922Z,13.70
2019-05-14T18:20:39.453Z,13.70
2019-05-14T18:23:11.724Z,13.70
2019-05-14T18:25:39.116Z,13.60
2019-05-14T18:28:09.353Z,13.60
2019-05-14T18:30:38.703Z,13.60
2019-05-14T18:33:08.040Z,13.50
2019-05-14T18:35:43.757Z,13.50
2019-05-14T18:38:08.253Z,13.40
2019-05-14T18:40:39.596Z,13.30
2019-05-14T18:43:08.601Z,13.30
2019-05-14T18:45:38.879Z,13.30
2019-05-14T18:48:08.560Z,13.20
2019-05-14T18:50:37.991Z,13.20
2019-05-14T18:53:09.075Z,13.20
2019-05-14T18:55:38.616Z,13.10
2019-05-14T18:58:08.558Z,13.10
2019-05-14T19:00:38.819Z,13.00
2019-05-14T19:03:08.466Z,13.00
2019-05-14T19:05:38.165Z,13.00
2019-05-14T19:08:07.286Z,12.90
2019-05-14T19:10:36.174Z,12.90
2019-05-14T19:13:05.169Z,12.90
2019-05-14T19:15:34.163Z,12.80
2019-05-14T19:18:03.155Z,12.80
2019-05-14T19:20:32.149Z,12.80
2019-05-14T19:23:01.142Z,12.80
2019-05-14T19:25:30.033Z,12.80
2019-05-14T19:27:59.028Z,12.70
2019-05-14T19:30:28.622Z,12.70
2019-05-14T19:32:57.626Z,12.70
2019-05-14T19:35:29.178Z,12.70
2019-05-14T19:37:59.429Z,12.70
2019-05-14T19:40:28.497Z,12.60
2019-05-14T19:42:57.363Z,12.60
2019-05-14T19:45:28.132Z,12.60
2019-05-14T19:47:58.390Z,12.60
2019-05-14T19:50:29.351Z,12.60
2019-05-14T19:52:58.949Z,12.60
2019-05-14T19:55:28.737Z,12.60
2019-05-14T19:57:58.278Z,12.60
2019-05-14T20:00:28.787Z,12.60
2019-05-14T20:02:58.260Z,12.60
2019-05-14T20:05:28.722Z,12.60
2019-05-14T20:07:58.059Z,12.60
2019-05-14T20:10:29.178Z,12.60
2019-05-14T20:12:59.107Z,12.50
2019-05-14T20:15:28.317Z,12.60
2019-05-14T20:17:58.221Z,12.50
2019-05-14T20:20:28.801Z,12.60
2019-05-14T20:22:59.032Z,12.60
2019-05-14T20:25:28.287Z,12.50
2019-05-14T20:27:58.749Z,12.50
2019-05-14T20:30:29.566Z,12.50
2019-05-14T20:32:59.298Z,12.50
2019-05-14T20:35:34.666Z,12.60
2019-05-14T20:37:58.943Z,12.60
2019-05-14T20:40:28.498Z,12.50
2019-05-14T20:42:58.832Z,12.50
2019-05-14T20:45:28.905Z,12.50
2019-05-14T20:47:58.623Z,12.50
2019-05-14T20:50:28.996Z,12.50
2019-05-14T20:52:59.210Z,12.50
2019-05-14T20:55:28.814Z,12.50
2019-05-14T20:57:58.843Z,12.50
2019-05-14T21:00:29.213Z,12.50
2019-05-14T21:02:59.640Z,12.50
2019-05-14T21:05:28.874Z,12.50
2019-05-14T21:07:58.872Z,12.50
2019-05-14T21:10:29.214Z,12.50
2019-05-14T21:12:58.402Z,12.50
2019-05-14T21:15:33.134Z,12.50
2019-05-14T21:18:01.994Z,12.50
2019-05-14T21:20:30.839Z,12.50
2019-05-14T21:23:05.562Z,12.50
2019-05-14T21:25:34.710Z,12.50
2019-05-14T21:28:03.527Z,12.40
2019-05-14T21:30:35.189Z,12.40
2019-05-14T21:33:02.820Z,12.50
2019-05-14T21:35:31.609Z,12.40
2019-05-14T21:38:00.490Z,12.40
2019-05-14T21:40:32.103Z,12.40
2019-05-14T21:42:59.866Z,12.40
2019-05-14T21:45:28.655Z,12.40
2019-05-14T21:47:59.491Z,12.40
2019-05-14T21:50:28.923Z,12.40
2019-05-14T21:52:59.664Z,12.40
2019-05-14T21:55:28.996Z,12.40
2019-05-14T21:57:57.990Z,12.40
2019-05-14T22:00:41.399Z,12.40
2019-05-14T22:03:10.264Z,12.40
2019-05-14T22:05:39.331Z,12.40
2019-05-14T22:08:09.009Z,12.40
2019-05-14T22:10:39.676Z,12.40
2019-05-14T22:13:08.838Z,12.40
2019-05-14T22:15:39.027Z,12.40
2019-05-14T22:18:17.425Z,12.40
2019-05-14T22:20:39.095Z,12.40
2019-05-14T22:23:08.925Z,12.30
2019-05-14T22:25:39.440Z,12.30
2019-05-14T22:28:15.031Z,12.30
2019-05-14T22:30:39.242Z,12.30
2019-05-14T22:33:08.663Z,12.30
2019-05-14T22:35:39.614Z,12.30
2019-05-14T22:38:08.492Z,12.40
2019-05-14T22:40:39.033Z,12.40
2019-05-14T22:43:09.198Z,12.40
2019-05-14T22:45:38.297Z,12.40
2019-05-14T22:48:09.179Z,12.40
2019-05-14T22:50:38.734Z,12.40
2019-05-14T22:53:09.335Z,12.30
2019-05-14T22:55:38.509Z,12.40
2019-05-14T22:58:25.170Z,12.30
2019-05-14T23:00:48.161Z,12.30
2019-05-14T23:03:14.394Z,12.30
2019-05-14T23:05:43.287Z,12.30
2019-05-14T23:08:12.278Z,12.30
2019-05-14T23:10:41.271Z,12.30
2019-05-14T23:13:10.264Z,12.20
2019-05-14T23:15:39.135Z,12.20
2019-05-14T23:18:08.564Z,12.20
2019-05-14T23:20:39.171Z,12.20
2019-05-14T23:23:09.277Z,12.20
2019-05-14T23:25:38.929Z,12.20
2019-05-14T23:28:08.606Z,12.10
2019-05-14T23:30:38.868Z,12.10
2019-05-14T23:33:08.048Z,12.10
2019-05-14T23:35:39.091Z,12.10
2019-05-14T23:38:08.476Z,12.10
2019-05-14T23:40:38.809Z,12.10
2019-05-14T23:43:08.109Z,12.00
2019-05-14T23:45:38.037Z,12.00
2019-05-14T23:48:09.371Z,12.00
2019-05-14T23:50:37.981Z,12.00
2019-05-14T23:53:09.211Z,12.00
2019-05-14T23:55:38.589Z,12.00
2019-05-14T23:58:08.331Z,11.90
